Nearby METAR Reports

 

ENTO - Torp (civ/Nor-Af, Norway
Distance from station: NNØ 26km
Oppdatert: 21/09/2018 17:20
Nearby showers, Hovedsaklig skyet
Nearby showers, Hovedsaklig skyet
 Vind fra S
Vind: S 52 km/h, Vindkast: 76 km/h
Temperatur: 13°C
Duggpunkt: 8°C
Fuktighet: 72%
Barometer: 985 hPa
Oversikt: Nearby Showers
Clouds: Hovedsaklig skyet
Visibility: 5 km
Cloud details: Delvis skyet 183 m
Hovedsaklig skyet 366 m
2018/09/21 15:20 ENTO 211520Z 19028G41KT 5000 VCSH SCT006TCU BKN012 13/08 Q0985
ENSN - Skien/Geiteryggen, Norway
Distance from station: NV 31km
Oppdatert: 09/11/2015 09:50
NOT Current
Klart
Klart
 Vind fra SSV
Vind: SSV 19 km/h, Vindkast: 41 km/h
Temperatur: 7°C
Wind Chill: 4°C
Duggpunkt: 3°C
Fuktighet: 76%
Barometer: 1000 hPa
Oversikt: Klart
Visibility: greater than 10 km
2015/11/09 08:50 ENSN 090850Z 20010G22KT 150V240 CAVOK 07/03 Q1000